Time;durP1;ratioP1;P1;durP2;ratioP2;P2;SDS_P1;SDS_P2;PMS_P1;PMS_P2;Temp;Humidity;BMP_temperature;BMP_pressure;BME280_temperature;BME280_humidity;BME280_pressure;Samples;Min_cycle;Max_cycle;Signal;HPM_P1;HPM_P2
2023/08/15 00:01:17;;;;;;;10.63;6.57;;;19.70;99.90;;;;;;5071604;28;20071;-65
2023/08/15 00:03:46;;;;;;;7.88;4.85;;;19.70;99.90;;;;;;5071908;28;20064;-65
2023/08/15 00:06:15;;;;;;;10.02;4.90;;;19.70;99.90;;;;;;5072112;28;20037;-65
2023/08/15 00:08:40;;;;;;;5.78;4.45;;;19.60;99.90;;;;;;5071768;28;20033;-65
2023/08/15 00:11:06;;;;;;;6.50;4.00;;;19.60;99.90;;;;;;5071590;28;20098;-65
2023/08/15 00:13:32;;;;;;;6.95;4.30;;;19.50;99.90;;;;;;5071922;28;20047;-65
2023/08/15 00:15:58;;;;;;;9.00;6.65;;;19.50;99.90;;;;;;5071756;28;20040;-65
2023/08/15 00:18:23;;;;;;;12.05;7.40;;;19.50;99.90;;;;;;5072138;28;20101;-65
2023/08/15 00:20:49;;;;;;;12.00;7.60;;;19.50;99.90;;;;;;5071621;28;20040;-65
2023/08/15 00:23:15;;;;;;;9.48;7.30;;;19.50;99.90;;;;;;5072138;28;20028;-65
2023/08/15 00:25:42;;;;;;;12.43;7.30;;;19.40;99.90;;;;;;5071399;28;20402;-65
2023/08/15 00:28:08;;;;;;;8.40;6.75;;;19.40;99.90;;;;;;5071475;28;20044;-65
2023/08/15 00:30:34;;;;;;;9.45;5.90;;;19.40;99.90;;;;;;5086313;22;20028;-66
2023/08/15 00:33:00;;;;;;;11.30;7.30;;;19.30;99.90;;;;;;5090551;28;20044;-67
2023/08/15 00:35:25;;;;;;;10.43;6.85;;;19.30;99.90;;;;;;5091267;28;20398;-67
2023/08/15 00:37:51;;;;;;;10.68;7.03;;;19.30;99.90;;;;;;5092141;28;20114;-67
2023/08/15 00:40:16;;;;;;;10.57;7.55;;;19.20;99.90;;;;;;5091791;28;20040;-67
2023/08/15 00:42:42;;;;;;;9.88;6.68;;;19.20;99.90;;;;;;5092136;28;20034;-67
2023/08/15 00:45:08;;;;;;;8.13;6.20;;;19.20;99.90;;;;;;5091429;28;20043;-67
2023/08/15 00:47:34;;;;;;;10.05;6.53;;;19.20;99.90;;;;;;5091977;28;20034;-67
2023/08/15 00:50:00;;;;;;;9.15;6.30;;;19.10;99.90;;;;;;5090578;28;20089;-67
2023/08/15 00:52:26;;;;;;;12.55;6.50;;;19.10;99.90;;;;;;5092110;28;20078;-67
2023/08/15 00:54:54;;;;;;;10.23;7.05;;;19.10;99.90;;;;;;5091770;28;20080;-67
2023/08/15 00:57:20;;;;;;;10.35;7.00;;;19.10;99.90;;;;;;5091926;28;20044;-67
2023/08/15 00:59:46;;;;;;;11.50;7.20;;;19.00;99.90;;;;;;5091629;28;20036;-67
2023/08/15 01:02:12;;;;;;;8.52;6.50;;;19.00;99.90;;;;;;5091039;28;20047;-67
2023/08/15 01:04:39;;;;;;;13.82;9.10;;;19.00;99.90;;;;;;5091828;28;20036;-66
2023/08/15 01:07:04;;;;;;;10.65;7.57;;;19.00;99.90;;;;;;5091575;28;20119;-66
2023/08/15 01:09:30;;;;;;;12.10;9.55;;;19.00;99.90;;;;;;5091465;28;20115;-67
2023/08/15 01:12:18;;;;;;;13.10;8.77;;;19.00;99.90;;;;;;5089934;28;20048;-67
2023/08/15 01:14:58;;;;;;;9.65;7.70;;;19.00;99.90;;;;;;5070310;28;20495;-67
2023/08/15 01:17:39;;;;;;;16.90;9.65;;;18.90;99.90;;;;;;5071658;28;20394;-67
2023/08/15 01:20:08;;;;;;;10.95;8.77;;;18.90;99.90;;;;;;5073717;28;20056;-67
2023/08/15 01:22:36;;;;;;;12.77;9.82;;;18.90;99.90;;;;;;5073715;28;20037;-67
2023/08/15 01:25:03;;;;;;;12.73;9.32;;;18.90;99.90;;;;;;5075427;28;20044;-67
2023/08/15 01:27:28;;;;;;;12.05;9.45;;;18.90;99.90;;;;;;5075169;28;20111;-67
2023/08/15 01:29:55;;;;;;;13.38;9.65;;;18.90;99.90;;;;;;5075318;28;20124;-67
2023/08/15 01:32:33;;;;;;;11.55;8.93;;;18.90;99.90;;;;;;5074542;28;20112;-66
2023/08/15 01:35:07;;;;;;;13.20;10.85;;;18.90;99.90;;;;;;5074508;28;20024;-67
2023/08/15 01:37:36;;;;;;;15.50;9.73;;;18.90;99.90;;;;;;5074828;28;20098;-67
2023/08/15 01:40:04;;;;;;;15.23;9.93;;;18.90;99.90;;;;;;5074879;28;20485;-67
2023/08/15 01:42:31;;;;;;;16.42;9.85;;;18.90;99.90;;;;;;5073783;28;20048;-66
2023/08/15 01:44:58;;;;;;;13.50;9.60;;;18.90;99.90;;;;;;5074463;28;20059;-67
2023/08/15 01:47:25;;;;;;;14.35;9.85;;;18.90;99.90;;;;;;5073199;28;20044;-67
2023/08/15 01:49:51;;;;;;;16.02;10.73;;;18.80;99.90;;;;;;5075207;28;20028;-67
2023/08/15 01:52:16;;;;;;;14.95;11.07;;;18.80;99.90;;;;;;5074492;28;20043;-67
2023/08/15 01:54:42;;;;;;;12.20;9.68;;;18.80;99.90;;;;;;5073368;28;20033;-66
2023/08/15 01:57:07;;;;;;;14.48;10.38;;;18.80;99.90;;;;;;5074464;28;20029;-67
2023/08/15 01:59:33;;;;;;;15.88;10.05;;;18.80;99.90;;;;;;5074874;28;20444;-66
2023/08/15 02:01:59;;;;;;;15.70;10.90;;;18.80;99.90;;;;;;5093918;28;20032;-67
2023/08/15 02:04:24;;;;;;;12.95;9.52;;;18.70;99.90;;;;;;5107431;28;20027;-67
2023/08/15 02:06:50;;;;;;;18.30;12.40;;;18.70;99.90;;;;;;5114559;28;20491;-67
2023/08/15 02:09:15;;;;;;;13.23;11.43;;;18.70;99.90;;;;;;5114520;28;20035;-67
2023/08/15 02:11:41;;;;;;;14.90;11.27;;;18.70;99.90;;;;;;5114709;28;20058;-67
2023/08/15 02:14:07;;;;;;;14.52;11.68;;;18.80;99.90;;;;;;5098249;28;20040;-67
2023/08/15 02:16:32;;;;;;;16.27;11.63;;;18.70;99.90;;;;;;5094584;28;20402;-67
2023/08/15 02:18:58;;;;;;;16.75;11.45;;;18.80;99.90;;;;;;5094687;28;20070;-67
2023/08/15 02:21:23;;;;;;;15.30;11.73;;;18.70;99.90;;;;;;5094344;28;20062;-66
2023/08/15 02:23:49;;;;;;;16.48;12.45;;;18.70;99.90;;;;;;5094479;28;20055;-67
2023/08/15 02:26:15;;;;;;;20.88;12.93;;;18.70;99.90;;;;;;5094595;28;20043;-67
2023/08/15 02:28:40;;;;;;;21.02;12.55;;;18.70;99.90;;;;;;5094512;28;20031;-67
2023/08/15 02:31:06;;;;;;;15.00;11.43;;;18.70;99.90;;;;;;5093223;28;20071;-67
2023/08/15 02:33:34;;;;;;;13.70;11.13;;;18.80;99.90;;;;;;5094175;28;20378;-67
2023/08/15 02:36:07;;;;;;;15.93;12.05;;;18.70;99.90;;;;;;5094312;28;20039;-67
2023/08/15 02:38:34;;;;;;;18.90;12.30;;;18.70;99.90;;;;;;5094455;28;20036;-67
2023/08/15 02:40:59;;;;;;;16.05;11.68;;;18.70;99.90;;;;;;5094130;28;20071;-67
2023/08/15 02:43:25;;;;;;;15.07;12.45;;;18.70;99.90;;;;;;5093880;28;20078;-67
2023/08/15 02:45:51;;;;;;;14.85;11.00;;;18.70;99.90;;;;;;5093926;28;20164;-67
2023/08/15 02:48:17;;;;;;;17.05;12.38;;;18.80;99.90;;;;;;5094321;28;20028;-67
2023/08/15 02:50:42;;;;;;;15.13;11.52;;;18.70;99.90;;;;;;5093651;28;20044;-67
2023/08/15 02:53:08;;;;;;;16.52;11.88;;;18.70;99.90;;;;;;5093717;28;20039;-67
2023/08/15 02:55:34;;;;;;;18.58;12.20;;;18.80;99.90;;;;;;5093852;28;20035;-67
2023/08/15 02:58:00;;;;;;;17.98;12.77;;;18.70;99.90;;;;;;5093555;28;20048;-67
2023/08/15 03:00:26;;;;;;;18.15;14.18;;;18.80;99.90;;;;;;5093471;28;20032;-67
2023/08/15 03:02:52;;;;;;;14.20;11.60;;;18.80;99.90;;;;;;5093643;28;20036;-67
2023/08/15 03:05:18;;;;;;;18.95;12.77;;;18.80;99.90;;;;;;5093756;28;20039;-67
2023/08/15 03:07:44;;;;;;;18.35;13.48;;;18.80;99.90;;;;;;5093313;28;20031;-67
2023/08/15 03:10:09;;;;;;;18.98;13.90;;;18.90;99.90;;;;;;5093718;28;20051;-67
2023/08/15 03:12:35;;;;;;;15.80;13.13;;;18.80;99.90;;;;;;5092985;28;20128;-67
2023/08/15 03:15:01;;;;;;;17.75;13.70;;;18.90;99.90;;;;;;5092698;28;20035;-67
2023/08/15 03:17:26;;;;;;;17.38;12.85;;;18.90;99.90;;;;;;5093244;28;20043;-67
2023/08/15 03:19:55;;;;;;;21.55;13.77;;;18.90;99.90;;;;;;5093711;28;20111;-67
2023/08/15 03:22:20;;;;;;;22.30;15.20;;;18.90;99.90;;;;;;5093361;28;20093;-67
2023/08/15 03:24:46;;;;;;;18.58;13.90;;;18.90;99.90;;;;;;5093284;28;20028;-67
2023/08/15 03:27:12;;;;;;;15.55;12.82;;;18.90;99.90;;;;;;5093328;28;20039;-67
2023/08/15 03:29:38;;;;;;;19.90;13.85;;;18.90;99.90;;;;;;5093192;28;20039;-67
2023/08/15 03:32:03;;;;;;;18.90;14.20;;;19.00;99.90;;;;;;5092945;28;20040;-67
2023/08/15 03:34:29;;;;;;;21.13;14.80;;;19.00;99.90;;;;;;5091643;28;20093;-67
2023/08/15 03:36:56;;;;;;;16.77;14.30;;;19.00;99.90;;;;;;5093334;28;20085;-67
2023/08/15 03:39:21;;;;;;;19.80;14.43;;;19.00;99.90;;;;;;5093189;28;20036;-67
2023/08/15 03:41:47;;;;;;;18.17;13.98;;;19.00;99.90;;;;;;5092338;28;20456;-67
2023/08/15 03:44:13;;;;;;;19.25;13.65;;;19.00;99.90;;;;;;5091383;28;20046;-67
2023/08/15 03:46:40;;;;;;;19.38;13.43;;;19.00;99.90;;;;;;5093140;28;20040;-67
2023/08/15 03:49:07;;;;;;;17.70;14.75;;;19.00;99.90;;;;;;5092655;28;20036;-67
2023/08/15 03:51:32;;;;;;;17.90;13.43;;;18.90;99.90;;;;;;5092880;28;20040;-67
2023/08/15 03:53:58;;;;;;;15.65;13.10;;;18.90;99.90;;;;;;5092319;28;20450;-67
2023/08/15 03:56:23;;;;;;;14.68;12.57;;;18.90;99.90;;;;;;5092750;28;20046;-67
2023/08/15 03:58:49;;;;;;;18.70;13.52;;;18.90;99.90;;;;;;5092508;28;20079;-67
2023/08/15 04:01:15;;;;;;;18.05;13.85;;;18.90;99.90;;;;;;5092601;28;20040;-67
2023/08/15 04:03:40;;;;;;;19.38;14.00;;;19.00;99.90;;;;;;5102616;28;20039;-67
2023/08/15 04:06:06;;;;;;;18.65;13.68;;;18.90;99.90;;;;;;5103634;28;20034;-67
2023/08/15 04:08:32;;;;;;;20.55;14.63;;;19.00;99.90;;;;;;5112537;28;20032;-67
2023/08/15 04:10:57;;;;;;;18.85;13.18;;;19.00;99.90;;;;;;5113069;28;20066;-66
2023/08/15 04:13:23;;;;;;;20.80;14.85;;;19.00;99.90;;;;;;5101324;28;20047;-66
2023/08/15 04:15:48;;;;;;;19.33;14.45;;;19.10;99.90;;;;;;5091741;28;20116;-67
2023/08/15 04:18:14;;;;;;;19.35;14.88;;;19.10;99.90;;;;;;5090675;28;20036;-66
2023/08/15 04:20:41;;;;;;;17.73;14.55;;;19.10;99.90;;;;;;5092480;28;20461;-65
2023/08/15 04:23:08;;;;;;;21.50;15.32;;;19.10;99.90;;;;;;5091678;28;20054;-68
2023/08/15 04:25:34;;;;;;;26.40;16.35;;;19.20;99.90;;;;;;5092105;28;20089;-68
2023/08/15 04:28:00;;;;;;;23.80;16.20;;;19.20;99.90;;;;;;5092013;28;20044;-67
2023/08/15 04:30:26;;;;;;;24.67;16.90;;;19.20;99.90;;;;;;5092244;28;20046;-67
2023/08/15 04:32:51;;;;;;;21.70;16.50;;;19.30;99.90;;;;;;5092279;28;20409;-67
2023/08/15 04:35:17;;;;;;;27.15;16.85;;;19.30;99.90;;;;;;5092118;28;20044;-67
2023/08/15 04:37:43;;;;;;;22.35;17.20;;;19.30;99.90;;;;;;5092169;28;20039;-67
2023/08/15 04:40:14;;;;;;;26.90;17.05;;;19.30;99.90;;;;;;5091995;28;20072;-67
2023/08/15 04:42:41;;;;;;;19.63;15.80;;;19.40;99.90;;;;;;5090656;28;20490;-67
2023/08/15 04:45:08;;;;;;;25.65;16.77;;;19.30;99.90;;;;;;5091980;28;20088;-67
2023/08/15 04:47:34;;;;;;;19.20;15.77;;;19.40;99.90;;;;;;5092214;28;20036;-67
2023/08/15 04:49:59;;;;;;;24.25;16.80;;;19.50;99.90;;;;;;5090718;28;20044;-67
2023/08/15 04:52:25;;;;;;;20.45;15.82;;;19.40;99.90;;;;;;5090595;28;20409;-66
2023/08/15 04:54:51;;;;;;;21.02;15.80;;;19.50;99.90;;;;;;5091120;28;20036;-66
2023/08/15 04:57:17;;;;;;;23.15;16.33;;;19.50;99.90;;;;;;5091783;28;20032;-67
2023/08/15 04:59:42;;;;;;;22.75;16.05;;;19.50;99.90;;;;;;5092135;28;20036;-67
2023/08/15 05:02:08;;;;;;;28.98;17.75;;;19.50;99.90;;;;;;5091673;28;20032;-67
2023/08/15 05:04:34;;;;;;;21.65;16.70;;;19.50;99.90;;;;;;5091693;28;20036;-66
2023/08/15 05:07:00;;;;;;;23.08;17.52;;;19.50;99.90;;;;;;5090877;28;20126;-66
2023/08/15 05:09:28;;;;;;;23.17;17.08;;;19.50;99.90;;;;;;5091825;28;20036;-66
2023/08/15 05:11:54;;;;;;;21.73;16.83;;;19.50;99.90;;;;;;5091834;28;20048;-66
2023/08/15 05:14:20;;;;;;;22.70;15.45;;;19.50;99.90;;;;;;5091646;28;20044;-67
2023/08/15 05:16:45;;;;;;;20.98;15.50;;;19.50;99.90;;;;;;5091964;28;20535;-67
2023/08/15 05:19:11;;;;;;;24.88;15.30;;;19.50;99.90;;;;;;5091903;28;20039;-66
2023/08/15 05:21:37;;;;;;;20.67;15.18;;;19.50;99.90;;;;;;5091656;28;20040;-67
2023/08/15 05:24:02;;;;;;;20.23;14.88;;;19.50;99.90;;;;;;5091273;28;20036;-67
2023/08/15 05:26:28;;;;;;;20.40;14.48;;;19.50;99.90;;;;;;5091551;28;20036;-67
2023/08/15 05:28:54;;;;;;;19.75;14.02;;;19.50;99.90;;;;;;5091801;28;20031;-67
2023/08/15 05:31:19;;;;;;;17.20;13.90;;;19.50;99.90;;;;;;5091633;28;20044;-67
2023/08/15 05:33:45;;;;;;;18.25;13.80;;;19.60;99.90;;;;;;5091367;28;20048;-67
2023/08/15 05:36:11;;;;;;;19.20;11.80;;;19.60;99.90;;;;;;5091568;28;20040;-67
2023/08/15 05:38:37;;;;;;;22.02;12.00;;;19.60;99.90;;;;;;5091481;28;20043;-67
2023/08/15 05:41:03;;;;;;;19.83;12.68;;;19.50;99.90;;;;;;5091580;28;20062;-67
2023/08/15 05:43:28;;;;;;;21.55;12.23;;;19.50;99.90;;;;;;5091503;28;20108;-67
2023/08/15 05:45:54;;;;;;;18.35;12.00;;;19.50;99.90;;;;;;5091445;28;20622;-66
2023/08/15 05:48:20;;;;;;;20.02;11.95;;;19.60;99.90;;;;;;5091557;28;20036;-67
2023/08/15 05:50:45;;;;;;;19.83;12.50;;;19.50;99.90;;;;;;5091439;28;20086;-67
2023/08/15 05:53:11;;;;;;;15.77;12.02;;;19.60;99.90;;;;;;5091231;28;20100;-67
2023/08/15 05:55:37;;;;;;;17.73;11.25;;;19.60;99.90;;;;;;5091256;28;20112;-67
2023/08/15 05:58:03;;;;;;;16.75;10.98;;;19.50;99.90;;;;;;5091611;28;20036;-67
2023/08/15 06:00:28;;;;;;;16.73;11.25;;;19.50;99.90;;;;;;5091307;28;20044;-67
2023/08/15 06:02:54;;;;;;;18.50;11.35;;;19.50;99.90;;;;;;5091242;28;20032;-66
2023/08/15 06:05:21;;;;;;;15.10;10.27;;;19.50;99.90;;;;;;5090985;28;20040;-66
2023/08/15 06:07:47;;;;;;;15.23;10.30;;;19.50;99.90;;;;;;5093152;28;20072;-66
2023/08/15 06:10:13;;;;;;;16.42;10.27;;;19.50;99.90;;;;;;5094739;28;20104;-67
2023/08/15 06:12:39;;;;;;;19.02;11.65;;;19.50;99.90;;;;;;5094673;28;20036;-67
2023/08/15 06:15:05;;;;;;;16.00;10.90;;;19.50;99.90;;;;;;5094464;28;20035;-67
2023/08/15 06:17:31;;;;;;;16.67;10.77;;;19.50;99.90;;;;;;5094783;28;20071;-67
2023/08/15 06:19:56;;;;;;;15.65;10.15;;;19.50;99.90;;;;;;5094741;28;20028;-67
2023/08/15 06:22:22;;;;;;;15.10;10.38;;;19.50;99.90;;;;;;5094253;28;20044;-66
2023/08/15 06:24:47;;;;;;;15.05;10.35;;;19.50;99.90;;;;;;5094507;28;20036;-67
2023/08/15 06:27:13;;;;;;;15.45;9.70;;;19.50;99.90;;;;;;5094758;28;20036;-67
2023/08/15 06:29:39;;;;;;;14.38;9.75;;;19.60;99.90;;;;;;5094642;28;20032;-67
2023/08/15 06:32:06;;;;;;;16.58;9.65;;;19.70;99.90;;;;;;5095622;22;20051;-65
2023/08/15 06:34:31;;;;;;;17.02;9.52;;;19.80;99.90;;;;;;5061058;28;20504;-64
2023/08/15 06:36:57;;;;;;;14.30;8.60;;;19.80;99.90;;;;;;5064229;28;20036;-64
2023/08/15 06:39:23;;;;;;;15.45;8.02;;;20.00;99.90;;;;;;5072369;28;20040;-65
2023/08/15 06:41:48;;;;;;;14.82;7.78;;;20.10;99.90;;;;;;5074068;28;20045;-65
2023/08/15 06:44:14;;;;;;;12.45;7.70;;;20.10;99.90;;;;;;5073254;28;20033;-65
2023/08/15 06:46:39;;;;;;;10.77;7.68;;;20.20;99.90;;;;;;5073738;28;20078;-65
2023/08/15 06:49:05;;;;;;;12.15;7.05;;;20.30;99.90;;;;;;5072574;28;20406;-64
2023/08/15 06:51:31;;;;;;;10.93;6.53;;;20.30;99.90;;;;;;5073276;28;20115;-64
2023/08/15 06:53:56;;;;;;;8.70;5.95;;;20.40;99.90;;;;;;5073314;28;20036;-65
2023/08/15 06:56:22;;;;;;;12.60;6.40;;;20.40;99.90;;;;;;5073619;28;20047;-65
2023/08/15 06:58:47;;;;;;;10.63;5.75;;;20.50;99.90;;;;;;5073849;28;20041;-65
2023/08/15 07:01:13;;;;;;;9.50;5.70;;;20.60;99.90;;;;;;5073666;28;20090;-64
2023/08/15 07:03:39;;;;;;;12.60;6.18;;;20.70;99.90;;;;;;5073463;28;20047;-65
2023/08/15 07:06:05;;;;;;;10.77;5.18;;;20.70;99.90;;;;;;5073462;28;20389;-65
2023/08/15 07:08:31;;;;;;;11.02;5.15;;;20.80;99.90;;;;;;5073618;28;20040;-65
2023/08/15 07:10:58;;;;;;;9.93;4.60;;;20.70;99.90;;;;;;5073594;28;20047;-65
2023/08/15 07:13:24;;;;;;;14.35;5.18;;;20.80;99.90;;;;;;5073271;28;20044;-65
2023/08/15 07:15:54;;;;;;;12.88;5.90;;;20.90;99.90;;;;;;5055332;28;20047;-65
2023/08/15 07:18:20;;;;;;;11.48;5.32;;;21.00;99.90;;;;;;5055378;28;20063;-65
2023/08/15 07:20:46;;;;;;;8.65;5.22;;;21.10;99.90;;;;;;5072892;28;20494;-65
2023/08/15 07:23:11;;;;;;;13.68;5.43;;;21.20;99.90;;;;;;5073289;28;20068;-64
2023/08/15 07:25:41;;;;;;;11.45;5.60;;;21.30;99.90;;;;;;5054238;28;20040;-65
2023/08/15 07:28:07;;;;;;;10.10;5.47;;;21.40;99.90;;;;;;5073228;28;20040;-65
2023/08/15 07:30:33;;;;;;;12.63;4.90;;;21.50;99.90;;;;;;5073076;28;20124;-65
2023/08/15 07:32:59;;;;;;;11.05;5.32;;;21.60;99.90;;;;;;5072722;28;20120;-65
2023/08/15 07:35:24;;;;;;;11.38;5.47;;;21.60;99.90;;;;;;5072513;28;20083;-65
2023/08/15 07:37:50;;;;;;;9.80;4.95;;;21.70;99.90;;;;;;5073028;28;20522;-65
2023/08/15 07:40:20;;;;;;;11.02;4.72;;;21.80;99.90;;;;;;5054996;28;20044;-65
2023/08/15 07:42:49;;;;;;;11.32;5.22;;;21.90;99.90;;;;;;5072309;28;20036;-65
2023/08/15 07:45:17;;;;;;;13.55;5.13;;;22.00;99.90;;;;;;5054664;28;20047;-65
2023/08/15 07:47:44;;;;;;;10.90;4.43;;;22.10;99.90;;;;;;5054748;28;20086;-65
2023/08/15 07:50:15;;;;;;;7.30;4.25;;;22.20;99.90;;;;;;5072614;28;20044;-65
2023/08/15 07:52:42;;;;;;;9.75;4.20;;;22.20;99.90;;;;;;5072412;28;20055;-65
2023/08/15 07:55:08;;;;;;;11.15;4.40;;;22.30;99.90;;;;;;5072361;28;20037;-65
2023/08/15 07:57:34;;;;;;;13.98;4.60;;;22.30;99.90;;;;;;5072539;28;20055;-65
2023/08/15 07:59:59;;;;;;;9.95;4.28;;;22.40;99.90;;;;;;5072472;28;20044;-65
2023/08/15 08:02:25;;;;;;;7.97;3.70;;;22.50;99.90;;;;;;5072174;28;20474;-65
2023/08/15 08:04:51;;;;;;;8.10;3.40;;;22.50;99.90;;;;;;5072328;28;20089;-65
2023/08/15 08:07:16;;;;;;;11.40;3.55;;;22.40;99.90;;;;;;5072480;28;20028;-65
2023/08/15 08:09:42;;;;;;;9.57;3.50;;;22.40;99.90;;;;;;5054442;28;20037;-65
2023/08/15 08:12:08;;;;;;;8.60;3.95;;;22.40;99.90;;;;;;5072340;28;20397;-65
2023/08/15 08:14:34;;;;;;;12.07;4.18;;;22.30;99.90;;;;;;5071031;28;20494;-65
2023/08/15 08:16:59;;;;;;;8.98;3.97;;;22.30;99.90;;;;;;5071626;28;20101;-65
2023/08/15 08:19:25;;;;;;;8.20;3.50;;;22.20;99.90;;;;;;5072417;28;20044;-65
2023/08/15 08:21:51;;;;;;;9.70;4.10;;;22.10;99.90;;;;;;5072106;28;20090;-65
2023/08/15 08:24:16;;;;;;;10.68;4.25;;;22.00;99.90;;;;;;5071880;28;20041;-65
2023/08/15 08:26:42;;;;;;;13.20;4.60;;;21.90;99.90;;;;;;5072157;28;20032;-65
2023/08/15 08:29:08;;;;;;;10.15;4.93;;;21.80;99.90;;;;;;5071483;28;20116;-65
2023/08/15 08:31:37;;;;;;;12.15;5.22;;;21.90;99.90;;;;;;5071575;28;20047;-65
2023/08/15 08:34:03;;;;;;;13.10;5.28;;;22.00;99.90;;;;;;5071818;28;20047;-65
2023/08/15 08:36:29;;;;;;;8.38;5.30;;;22.10;99.90;;;;;;5053984;28;20040;-65
2023/08/15 08:38:54;;;;;;;10.45;5.40;;;22.30;99.90;;;;;;5053824;28;20072;-65
2023/08/15 08:41:21;;;;;;;10.23;5.90;;;22.30;99.90;;;;;;5071520;28;20119;-65
2023/08/15 08:43:47;;;;;;;9.80;5.60;;;22.30;99.90;;;;;;5071444;28;20482;-65
2023/08/15 08:46:13;;;;;;;14.82;6.53;;;22.40;99.90;;;;;;5071724;28;20069;-65
2023/08/15 08:48:41;;;;;;;11.55;7.25;;;22.40;99.90;;;;;;5053424;28;20029;-65
2023/08/15 08:51:08;;;;;;;12.77;8.10;;;22.40;99.90;;;;;;5071384;28;20032;-65
2023/08/15 08:53:34;;;;;;;10.75;7.32;;;22.50;99.90;;;;;;5071497;28;20402;-65
2023/08/15 08:56:01;;;;;;;12.57;7.43;;;22.50;99.90;;;;;;5071845;28;20044;-65
2023/08/15 08:58:29;;;;;;;10.45;8.02;;;22.60;99.90;;;;;;5053792;28;20051;-65
2023/08/15 09:00:56;;;;;;;11.18;7.68;;;22.70;99.90;;;;;;5053520;28;20059;-65
2023/08/15 09:03:21;;;;;;;10.52;7.30;;;22.80;99.90;;;;;;5071711;28;20075;-65
2023/08/15 09:05:47;;;;;;;12.73;7.45;;;22.90;99.90;;;;;;5071476;28;20073;-65
2023/08/15 09:08:13;;;;;;;13.52;7.55;;;23.00;99.90;;;;;;5071796;28;20036;-65
2023/08/15 09:10:39;;;;;;;9.20;6.90;;;23.10;99.90;;;;;;5053641;28;20444;-65
2023/08/15 09:13:04;;;;;;;11.55;6.85;;;23.20;99.90;;;;;;5071475;28;20041;-65
2023/08/15 09:15:30;;;;;;;11.35;7.28;;;23.30;99.90;;;;;;5070675;28;20040;-66
2023/08/15 09:18:00;;;;;;;8.27;5.95;;;23.40;99.90;;;;;;5071455;28;20040;-65
2023/08/15 09:20:26;;;;;;;;;;;23.50;99.90;;;;;;5053908;28;20155;-65
2023/08/15 09:22:58;;;;;;;8.93;5.15;;;23.60;99.90;;;;;;5052999;28;19951;-65
2023/08/15 09:25:27;;;;;;;7.45;4.32;;;23.80;99.90;;;;;;5053561;28;20045;-65
2023/08/15 09:27:53;;;;;;;7.90;4.90;;;23.90;99.90;;;;;;5070868;28;20082;-65
2023/08/15 09:30:19;;;;;;;8.75;4.88;;;23.80;99.90;;;;;;5071241;28;20068;-65
2023/08/15 09:32:45;;;;;;;10.57;5.47;;;23.70;99.90;;;;;;5053202;28;20075;-65
2023/08/15 09:35:13;;;;;;;6.20;4.38;;;23.50;99.90;;;;;;5053076;28;20037;-65
2023/08/15 09:37:43;;;;;;;7.78;4.60;;;23.40;99.90;;;;;;5053011;28;20036;-65
2023/08/15 09:40:11;;;;;;;7.50;4.85;;;23.20;99.90;;;;;;5072069;28;20033;-65
2023/08/15 09:42:37;;;;;;;7.35;4.60;;;23.10;99.90;;;;;;5074530;28;20040;-65
2023/08/15 09:45:04;;;;;;;8.50;3.80;;;23.10;99.90;;;;;;5056871;28;20032;-65
2023/08/15 09:47:30;;;;;;;8.00;4.03;;;23.20;99.90;;;;;;5056891;28;20047;-65
2023/08/15 09:49:56;;;;;;;7.40;3.70;;;23.20;99.90;;;;;;5075088;28;20108;-65
2023/08/15 09:52:24;;;;;;;7.82;3.10;;;23.20;99.90;;;;;;5074831;28;20054;-65
2023/08/15 09:54:49;;;;;;;6.10;3.08;;;23.20;99.90;;;;;;5073699;28;20063;-65
2023/08/15 09:57:15;;;;;;;5.15;2.85;;;23.30;99.90;;;;;;5057057;28;20486;-65
2023/08/15 09:59:40;;;;;;;6.53;2.55;;;23.30;99.90;;;;;;5074865;28;20550;-65
2023/08/15 10:02:18;;;;;;;7.38;2.95;;;23.20;99.90;;;;;;5074675;28;20044;-65
2023/08/15 10:04:46;;;;;;;6.75;2.55;;;23.10;99.90;;;;;;5056570;28;20078;-65
2023/08/15 10:07:12;;;;;;;6.85;2.67;;;23.00;99.90;;;;;;5074314;28;20498;-66
2023/08/15 10:09:38;;;;;;;7.78;2.90;;;23.00;99.90;;;;;;5074528;28;20037;-65
2023/08/15 10:12:05;;;;;;;7.03;2.75;;;22.90;99.90;;;;;;5055751;28;20059;-65
2023/08/15 10:14:31;;;;;;;9.18;2.60;;;22.90;99.90;;;;;;5056380;28;20048;-66
2023/08/15 10:16:57;;;;;;;5.88;2.67;;;22.80;99.90;;;;;;5056785;28;20067;-66
2023/08/15 10:19:29;;;;;;;6.97;2.70;;;22.80;99.90;;;;;;5056477;28;20490;-66
2023/08/15 10:21:54;;;;;;;7.40;2.38;;;22.90;99.90;;;;;;5074098;28;20455;-65
2023/08/15 10:24:21;;;;;;;9.32;2.53;;;23.10;99.90;;;;;;5073971;28;20075;-66
2023/08/15 10:26:50;;;;;;;8.10;2.30;;;23.30;99.90;;;;;;5056333;28;20068;-66
2023/08/15 10:29:16;;;;;;;6.18;2.28;;;23.30;99.90;;;;;;5056228;28;20072;-66
2023/08/15 10:31:42;;;;;;;7.13;2.00;;;23.40;99.90;;;;;;5074171;28;20066;-66
2023/08/15 10:34:10;;;;;;;4.47;1.80;;;23.50;99.90;;;;;;5073844;28;20459;-66
2023/08/15 10:36:36;;;;;;;4.35;1.73;;;23.70;99.90;;;;;;5073884;28;20066;-65
2023/08/15 10:39:06;;;;;;;7.25;1.80;;;24.00;99.90;;;;;;5074095;28;20036;-65
2023/08/15 10:41:37;;;;;;;3.60;1.92;;;24.20;99.90;;;;;;5074064;28;20040;-66
2023/08/15 10:44:07;;;;;;;7.20;1.80;;;24.20;99.90;;;;;;5073573;28;20032;-66
2023/08/15 10:46:34;;;;;;;5.07;2.25;;;24.10;99.90;;;;;;5073609;28;20040;-66
2023/08/15 10:49:17;;;;;;;6.45;3.03;;;24.00;99.90;;;;;;5055787;28;20493;-66
2023/08/15 10:51:43;;;;;;;5.97;2.47;;;24.00;99.90;;;;;;5055209;28;20055;-66
2023/08/15 10:54:11;;;;;;;6.25;2.58;;;24.00;99.90;;;;;;5055521;28;20044;-65
2023/08/15 10:56:38;;;;;;;6.15;2.28;;;23.90;99.90;;;;;;5073771;28;20513;-65
2023/08/15 10:59:12;;;;;;;6.30;2.13;;;23.70;99.90;;;;;;5073719;28;20091;-65
2023/08/15 11:01:40;;;;;;;3.90;1.80;;;23.60;99.90;;;;;;5073269;28;20033;-66
2023/08/15 11:04:10;;;;;;;6.20;2.70;;;23.60;99.90;;;;;;5073565;28;20115;-66
2023/08/15 11:06:47;;;;;;;5.32;2.20;;;23.50;99.90;;;;;;5055823;28;20046;-65
2023/08/15 11:09:13;;;;;;;3.50;2.10;;;23.60;99.90;;;;;;5073260;28;20040;-65
2023/08/15 11:11:39;;;;;;;6.50;2.33;;;23.70;99.90;;;;;;5055557;28;20047;-66
2023/08/15 11:14:22;;;;;;;5.47;2.13;;;23.80;99.90;;;;;;5072569;28;20422;-65
2023/08/15 11:16:48;;;;;;;6.20;2.33;;;23.90;99.90;;;;;;5073321;28;20077;-66
2023/08/15 11:19:23;;;;;;;5.63;2.50;;;24.00;99.90;;;;;;5054863;28;20047;-65
2023/08/15 11:21:49;;;;;;;7.07;2.60;;;24.10;99.90;;;;;;5073149;28;20032;-65
2023/08/15 11:24:15;;;;;;;3.55;1.83;;;24.20;99.90;;;;;;5054746;28;20040;-65
2023/08/15 11:26:41;;;;;;;6.95;2.72;;;24.40;99.90;;;;;;5072501;28;20111;-65
2023/08/15 11:29:09;;;;;;;6.00;2.53;;;24.40;99.90;;;;;;5072734;28;20032;-66
2023/08/15 11:31:35;;;;;;;4.95;2.20;;;24.40;99.90;;;;;;5072833;28;20044;-66
2023/08/15 11:34:02;;;;;;;5.50;2.53;;;24.50;99.90;;;;;;5055038;28;20398;-65
2023/08/15 11:36:28;;;;;;;5.75;2.30;;;24.50;99.90;;;;;;5072429;28;20041;-66
2023/08/15 11:38:53;;;;;;;10.68;2.85;;;24.50;99.90;;;;;;5072613;28;20044;-65
2023/08/15 11:41:19;;;;;;;7.13;2.35;;;24.40;99.90;;;;;;5072604;28;20040;-65
2023/08/15 11:43:45;;;;;;;4.05;2.38;;;24.40;99.90;;;;;;5072738;28;20036;-65
2023/08/15 11:46:10;;;;;;;7.45;2.33;;;24.40;99.90;;;;;;5072845;28;20119;-65
2023/08/15 11:48:36;;;;;;;6.45;2.25;;;24.40;99.90;;;;;;5072733;28;20033;-65
2023/08/15 11:51:02;;;;;;;6.53;2.58;;;24.50;99.90;;;;;;5072688;28;20115;-65
2023/08/15 11:53:28;;;;;;;5.32;2.70;;;24.60;99.90;;;;;;5054389;28;20047;-66
2023/08/15 11:55:54;;;;;;;6.70;2.30;;;24.80;99.90;;;;;;5054615;28;20414;-65
2023/08/15 11:58:27;;;;;;;9.45;2.60;;;24.80;99.90;;;;;;5072764;28;20044;-66
2023/08/15 12:01:11;;;;;;;5.35;2.40;;;24.80;99.90;;;;;;5072465;28;20036;-65
2023/08/15 12:03:38;;;;;;;7.68;2.22;;;24.70;99.90;;;;;;5071403;28;20104;-65
2023/08/15 12:06:10;;;;;;;7.20;2.40;;;24.70;99.90;;;;;;5072241;28;20079;-65
2023/08/15 12:08:39;;;;;;;6.57;3.10;;;24.70;99.90;;;;;;5072524;28;20497;-66
2023/08/15 12:11:06;;;;;;;8.00;2.85;;;24.60;99.90;;;;;;5072461;28;20040;-65
2023/08/15 12:13:34;;;;;;;6.55;2.47;;;24.60;99.90;;;;;;5071930;28;20398;-65
2023/08/15 12:16:01;;;;;;;8.20;2.58;;;24.60;99.90;;;;;;5072219;28;20052;-65
2023/08/15 12:18:27;;;;;;;5.95;2.25;;;24.60;99.90;;;;;;5072160;28;20059;-66
2023/08/15 12:20:53;;;;;;;11.20;3.15;;;24.50;99.90;;;;;;5071924;28;20102;-65
2023/08/15 12:23:19;;;;;;;8.60;2.90;;;24.40;99.90;;;;;;5072199;28;20036;-65
2023/08/15 12:25:44;;;;;;;5.72;2.75;;;24.40;99.90;;;;;;5054188;28;20060;-66
2023/08/15 12:28:10;;;;;;;7.75;3.10;;;24.30;99.90;;;;;;5072134;28;20052;-65
2023/08/15 12:30:36;;;;;;;5.72;2.58;;;24.20;99.90;;;;;;5072136;28;20046;-65
2023/08/15 12:33:01;;;;;;;7.93;3.17;;;24.20;99.90;;;;;;5099167;22;20036;-67
2023/08/15 12:35:28;;;;;;;7.85;3.13;;;24.20;99.90;;;;;;5091084;28;20401;-67